Time;durP1;ratioP1;P1;durP2;ratioP2;P2;SDS_P1;SDS_P2;PMS_P1;PMS_P2;Temp;Humidity;BMP_temperature;BMP_pressure;BME280_temperature;BME280_humidity;BME280_pressure;Samples;Min_cycle;Max_cycle;Signal;HPM_P1;HPM_P2
2022/11/02 00:01:19;;;;;;;11.32;2.08;;;13.00;99.90;;;;;;4991838;28;20096;-87
2022/11/02 00:03:45;;;;;;;10.02;2.22;;;13.00;99.90;;;;;;4999294;28;20037;-87
2022/11/02 00:06:11;;;;;;;10.95;2.22;;;12.90;99.90;;;;;;4971343;28;20445;-87
2022/11/02 00:08:37;;;;;;;11.38;2.25;;;12.90;99.90;;;;;;4993691;28;20103;-87
2022/11/02 00:11:02;;;;;;;11.15;2.40;;;12.90;99.90;;;;;;4976968;28;20088;-86
2022/11/02 00:13:28;;;;;;;11.30;2.15;;;12.80;99.90;;;;;;4969738;28;20104;-87
2022/11/02 00:15:54;;;;;;;11.77;2.75;;;12.80;99.90;;;;;;4980532;28;20048;-87
2022/11/02 00:18:21;;;;;;;9.23;2.00;;;12.80;99.90;;;;;;4999024;28;20041;-87
2022/11/02 00:20:46;;;;;;;10.38;2.20;;;12.80;99.90;;;;;;5009795;28;20045;-87
2022/11/02 00:23:14;;;;;;;8.82;2.00;;;12.60;99.90;;;;;;5008213;28;20049;-87
2022/11/02 00:25:47;;;;;;;11.23;2.03;;;12.60;99.90;;;;;;4973369;28;20046;-87
2022/11/02 00:28:13;;;;;;;11.15;2.33;;;12.60;99.90;;;;;;4984755;28;20394;-87
2022/11/02 00:30:39;;;;;;;9.68;2.30;;;12.50;99.90;;;;;;5004955;28;20053;-86
2022/11/02 00:33:05;;;;;;;12.60;2.53;;;12.50;99.90;;;;;;5019547;28;20041;-86
2022/11/02 00:35:32;;;;;;;9.60;2.03;;;12.60;99.90;;;;;;4979277;28;20466;-86
2022/11/02 00:37:58;;;;;;;9.45;2.00;;;12.40;99.90;;;;;;5026783;28;20041;-86
2022/11/02 00:40:24;;;;;;;9.52;2.03;;;12.30;99.90;;;;;;4976550;28;20037;-87
2022/11/02 00:42:49;;;;;;;8.50;2.15;;;12.20;99.90;;;;;;4992997;28;20131;-87
2022/11/02 00:45:15;;;;;;;10.13;2.20;;;12.20;99.90;;;;;;4974498;28;20058;-86
2022/11/02 00:47:41;;;;;;;10.75;1.88;;;12.10;99.90;;;;;;4992983;28;20128;-86
2022/11/02 00:50:07;;;;;;;6.80;1.65;;;12.00;99.90;;;;;;4991456;28;20052;-86
2022/11/02 00:52:33;;;;;;;8.35;1.90;;;12.00;99.90;;;;;;4989399;28;20046;-86
2022/11/02 00:54:58;;;;;;;7.50;1.98;;;11.90;99.90;;;;;;4977681;28;20034;-85
2022/11/02 00:57:24;;;;;;;8.07;1.88;;;11.80;99.90;;;;;;4976318;28;20095;-86
2022/11/02 00:59:50;;;;;;;6.13;1.83;;;11.90;99.90;;;;;;4988968;28;20176;-87
2022/11/02 01:02:16;;;;;;;7.43;1.65;;;11.70;99.90;;;;;;4974363;28;20538;-86
2022/11/02 01:04:41;;;;;;;6.03;1.50;;;11.70;99.90;;;;;;4957703;28;20407;-86
2022/11/02 01:07:07;;;;;;;6.32;1.40;;;11.60;99.90;;;;;;4988804;28;20045;-86
2022/11/02 01:09:33;;;;;;;5.25;1.30;;;11.60;99.90;;;;;;4989154;28;20042;-86
2022/11/02 01:11:59;;;;;;;7.80;1.60;;;11.60;99.90;;;;;;4985908;28;20034;-87
2022/11/02 01:14:25;;;;;;;4.90;1.50;;;11.50;99.90;;;;;;4987449;28;20065;-86
2022/11/02 01:16:51;;;;;;;8.05;1.67;;;11.60;99.90;;;;;;4988481;28;20061;-86
2022/11/02 01:19:19;;;;;;;8.30;1.60;;;11.50;99.90;;;;;;4981885;28;20040;-87
2022/11/02 01:21:44;;;;;;;5.50;1.50;;;11.50;99.90;;;;;;4990190;28;20077;-86
2022/11/02 01:24:10;;;;;;;5.75;1.60;;;11.40;99.90;;;;;;4971969;28;20124;-87
2022/11/02 01:26:36;;;;;;;6.15;1.40;;;11.40;99.90;;;;;;4990120;28;20038;-87
2022/11/02 01:29:02;;;;;;;4.38;1.40;;;11.30;99.90;;;;;;4997585;28;20042;-87
2022/11/02 01:31:27;;;;;;;5.72;1.50;;;11.30;99.90;;;;;;4975224;28;20553;-86
2022/11/02 01:33:53;;;;;;;4.90;1.40;;;11.50;99.90;;;;;;4989832;28;20083;-86
2022/11/02 01:36:20;;;;;;;5.68;1.40;;;11.40;99.90;;;;;;4974703;28;20069;-86
2022/11/02 01:38:47;;;;;;;6.05;1.40;;;11.20;99.90;;;;;;4976068;28;20041;-87
2022/11/02 01:41:13;;;;;;;5.53;1.50;;;11.70;99.90;;;;;;4974674;28;20103;-87
2022/11/02 01:43:44;;;;;;;5.10;1.20;;;11.20;99.90;;;;;;4973225;28;20143;-87
2022/11/02 01:46:10;;;;;;;6.13;1.42;;;11.10;99.90;;;;;;4971951;28;20537;-86
2022/11/02 01:48:38;;;;;;;4.55;1.20;;;11.10;99.90;;;;;;4987386;28;20157;-87
2022/11/02 01:51:08;;;;;;;4.40;1.23;;;11.00;99.90;;;;;;5007453;28;20105;-86
2022/11/02 01:53:37;;;;;;;4.72;1.23;;;11.00;99.90;;;;;;4990033;28;20107;-86
2022/11/02 01:56:04;;;;;;;8.25;1.70;;;11.10;99.90;;;;;;4991665;28;20041;-86
2022/11/02 01:58:33;;;;;;;6.03;1.30;;;11.00;99.90;;;;;;4991203;28;20050;-87
2022/11/02 02:00:59;;;;;;;5.25;1.35;;;11.10;99.90;;;;;;4993922;28;20080;-86
2022/11/02 02:03:28;;;;;;;3.83;1.50;;;11.10;99.90;;;;;;5011360;28;20139;-86
2022/11/02 02:06:01;;;;;;;5.68;1.40;;;11.10;99.90;;;;;;4978611;28;20049;-86
2022/11/02 02:08:28;;;;;;;8.18;1.70;;;11.10;99.90;;;;;;4994473;28;20104;-87
2022/11/02 02:10:58;;;;;;;5.82;1.45;;;11.10;99.90;;;;;;4994278;28;20201;-86
2022/11/02 02:13:26;;;;;;;4.30;1.60;;;11.10;99.90;;;;;;5010517;28;20521;-86
2022/11/02 02:15:56;;;;;;;6.72;1.45;;;11.70;99.90;;;;;;4992522;28;20495;-86
2022/11/02 02:18:33;;;;;;;5.18;1.38;;;11.10;99.90;;;;;;5011457;28;20112;-86
2022/11/02 02:21:11;;;;;;;6.38;1.67;;;11.10;99.90;;;;;;5010977;28;20080;-86
2022/11/02 02:23:56;;;;;;;6.10;1.67;;;11.10;99.90;;;;;;5005082;28;20054;-86
2022/11/02 02:26:37;;;;;;;7.65;1.65;;;11.10;99.90;;;;;;5006025;28;20037;-86
2022/11/02 02:29:21;;;;;;;6.68;1.60;;;11.10;99.90;;;;;;4989233;28;20678;-86
2022/11/02 02:31:54;;;;;;;10.23;2.25;;;11.00;99.90;;;;;;4994462;28;20034;-86
2022/11/02 02:34:23;;;;;;;;;;;11.10;99.90;;;;;;4994948;28;20045;-86
2022/11/02 02:37:00;;;;;;;9.50;2.40;;;11.10;99.90;;;;;;4993771;28;19953;-86
2022/11/02 02:39:42;;;;;;;8.65;2.20;;;11.10;99.90;;;;;;5010797;28;20124;-86
2022/11/02 02:42:14;;;;;;;12.93;2.58;;;11.20;99.90;;;;;;4994383;28;20121;-87
2022/11/02 02:44:45;;;;;;;12.50;2.78;;;11.30;99.90;;;;;;5010896;28;20104;-86
2022/11/02 02:47:20;;;;;;;10.88;2.97;;;11.30;99.90;;;;;;5007314;28;20060;-86
2022/11/02 02:49:56;;;;;;;12.65;3.15;;;11.30;99.90;;;;;;5008080;28;20042;-86
2022/11/02 02:52:25;;;;;;;11.00;2.63;;;11.30;99.90;;;;;;4994172;28;20038;-86
2022/11/02 02:54:54;;;;;;;11.30;2.72;;;11.30;99.90;;;;;;4970802;28;20053;-86
2022/11/02 02:57:22;;;;;;;14.55;2.40;;;11.40;99.90;;;;;;4988326;28;20419;-86
2022/11/02 02:59:48;;;;;;;10.55;2.50;;;11.40;99.90;;;;;;4991751;28;20053;-86
2022/11/02 03:02:25;;;;;;;11.65;2.53;;;11.40;99.90;;;;;;4990560;28;20088;-85
2022/11/02 03:04:51;;;;;;;11.25;2.63;;;11.50;99.90;;;;;;4999858;28;20108;-84
2022/11/02 03:07:23;;;;;;;7.60;1.90;;;11.50;99.90;;;;;;4992484;28;20038;-85
2022/11/02 03:10:29;;;;;;;9.82;2.50;;;11.50;99.90;;;;;;4994023;28;20048;-84
2022/11/02 03:13:16;;;;;;;8.48;2.10;;;11.50;99.90;;;;;;4992458;28;20511;-85
2022/11/02 03:16:16;;;;;;;7.78;1.90;;;11.50;99.90;;;;;;5009282;28;20060;-86
2022/11/02 03:18:51;;;;;;;9.88;1.85;;;11.50;99.90;;;;;;4990465;28;20050;-85
2022/11/02 03:21:42;;;;;;;7.82;1.90;;;11.50;99.90;;;;;;4981775;28;20041;-85
2022/11/02 03:24:15;;;;;;;10.48;1.88;;;11.50;99.90;;;;;;4994227;28;20045;-85
2022/11/02 03:26:47;;;;;;;7.93;1.85;;;11.40;99.90;;;;;;5006992;28;20078;-85
2022/11/02 03:29:30;;;;;;;6.80;1.73;;;11.40;99.90;;;;;;4991092;28;20125;-85
2022/11/02 03:31:59;;;;;;;9.57;1.63;;;11.40;99.90;;;;;;4994048;28;20038;-85
2022/11/02 03:34:28;;;;;;;7.13;1.90;;;11.30;99.90;;;;;;4992903;28;20034;-84
2022/11/02 03:37:01;;;;;;;7.22;1.50;;;11.30;99.90;;;;;;4986833;28;20069;-85
2022/11/02 03:39:39;;;;;;;7.60;1.75;;;11.30;99.90;;;;;;4993157;28;20034;-84
2022/11/02 03:42:08;;;;;;;5.00;1.33;;;11.30;99.90;;;;;;5008826;28;20064;-84
2022/11/02 03:44:38;;;;;;;6.85;1.40;;;11.30;99.90;;;;;;4993444;28;20060;-85
2022/11/02 03:47:06;;;;;;;7.78;1.70;;;11.30;99.90;;;;;;5009022;28;20101;-85
2022/11/02 03:49:33;;;;;;;8.20;1.77;;;11.30;99.90;;;;;;5003954;28;20117;-85
2022/11/02 03:52:04;;;;;;;7.03;1.75;;;11.30;99.90;;;;;;4968232;28;20402;-85
2022/11/02 03:54:46;;;;;;;8.65;1.70;;;11.20;99.90;;;;;;4992747;28;20081;-85
2022/11/02 03:57:22;;;;;;;7.95;1.85;;;11.20;99.90;;;;;;5007413;28;20033;-84
2022/11/02 03:59:48;;;;;;;9.35;1.83;;;11.20;99.90;;;;;;4991734;28;20062;-84
2022/11/02 04:02:16;;;;;;;9.35;1.80;;;11.20;99.90;;;;;;5008407;28;20074;-84
2022/11/02 04:04:52;;;;;;;8.85;1.90;;;11.20;99.90;;;;;;5008192;28;20400;-85
2022/11/02 04:07:23;;;;;;;9.75;1.90;;;11.10;99.90;;;;;;4998027;28;20126;-85
2022/11/02 04:09:48;;;;;;;10.30;1.90;;;11.10;99.90;;;;;;5010743;28;20073;-85
2022/11/02 04:15:00;;;;;;;8.23;1.80;;;11.10;99.90;;;;;;5009334;28;20046;-84
2022/11/02 04:20:10;;;;;;;11.00;2.05;;;11.10;99.90;;;;;;4996441;28;20092;-85
2022/11/02 04:25:20;;;;;;;10.07;1.95;;;11.10;99.90;;;;;;4992431;28;20506;-85
2022/11/02 04:27:48;;;;;;;11.52;2.10;;;11.10;99.90;;;;;;4976641;28;20069;-84
2022/11/02 04:30:15;;;;;;;9.52;2.13;;;11.10;99.90;;;;;;4993077;28;20054;-85
2022/11/02 04:35:31;;;;;;;11.98;2.38;;;11.20;99.90;;;;;;4996966;28;20103;-85
2022/11/02 04:40:41;;;;;;;10.88;2.10;;;12.00;99.90;;;;;;4995498;28;20042;-84
2022/11/02 04:43:08;;;;;;;10.18;2.10;;;11.30;99.90;;;;;;5008135;28;20042;-84
2022/11/02 04:45:34;;;;;;;7.78;1.95;;;11.30;99.90;;;;;;4976802;28;20048;-84
2022/11/02 04:48:05;;;;;;;10.32;2.30;;;11.30;99.90;;;;;;4974733;28;20467;-84
2022/11/02 04:50:31;;;;;;;9.93;2.05;;;11.30;99.90;;;;;;5008952;28;20046;-84
2022/11/02 04:52:58;;;;;;;10.57;1.73;;;11.20;99.90;;;;;;4991024;28;20038;-84
2022/11/02 04:55:24;;;;;;;12.77;1.80;;;11.20;99.90;;;;;;4992146;28;20049;-85
2022/11/02 04:57:50;;;;;;;11.13;2.13;;;11.20;99.90;;;;;;4992516;28;20029;-85
2022/11/02 05:00:16;;;;;;;11.38;2.25;;;11.10;99.90;;;;;;4992561;28;20038;-84
2022/11/02 05:02:42;;;;;;;8.82;2.13;;;11.10;99.90;;;;;;4992420;28;20427;-84
2022/11/02 05:05:08;;;;;;;8.40;1.85;;;11.10;99.90;;;;;;4967365;28;20094;-84
2022/11/02 05:07:33;;;;;;;9.15;1.90;;;11.10;99.90;;;;;;4995876;28;20103;-85
2022/11/02 05:09:59;;;;;;;13.57;2.47;;;11.10;99.90;;;;;;5012286;28;20052;-85
2022/11/02 05:12:25;;;;;;;9.05;1.80;;;11.10;99.90;;;;;;4989170;28;20042;-85
2022/11/02 05:14:50;;;;;;;9.85;2.47;;;11.10;99.90;;;;;;4995153;28;20506;-84
2022/11/02 05:17:16;;;;;;;9.57;2.15;;;11.00;99.90;;;;;;5012086;28;20040;-84
2022/11/02 05:19:42;;;;;;;11.52;2.42;;;11.10;99.90;;;;;;4995700;28;20071;-84
2022/11/02 05:22:07;;;;;;;13.73;2.15;;;11.10;99.90;;;;;;4979277;28;20073;-84
2022/11/02 05:24:33;;;;;;;8.18;1.92;;;11.10;99.90;;;;;;4991004;28;20048;-85
2022/11/02 05:27:02;;;;;;;9.93;2.38;;;11.10;99.90;;;;;;4972976;28;20389;-85
2022/11/02 05:29:27;;;;;;;9.60;2.40;;;11.10;99.90;;;;;;4971479;28;20134;-84
2022/11/02 05:31:53;;;;;;;10.70;2.40;;;11.10;99.90;;;;;;5003435;28;20129;-84
2022/11/02 05:34:19;;;;;;;9.65;2.35;;;11.10;99.90;;;;;;4984425;28;20100;-84
2022/11/02 05:36:47;;;;;;;13.50;2.88;;;11.00;99.90;;;;;;4986995;28;20033;-85
2022/11/02 05:39:12;;;;;;;11.85;2.53;;;11.00;99.90;;;;;;4991446;28;20128;-84
2022/11/02 05:41:38;;;;;;;11.38;2.42;;;11.00;99.90;;;;;;4989094;28;20473;-85
2022/11/02 05:44:04;;;;;;;14.05;2.95;;;11.00;99.90;;;;;;4987718;28;20359;-85
2022/11/02 05:46:30;;;;;;;11.27;2.70;;;11.00;99.90;;;;;;4955510;28;20065;-85
2022/11/02 05:48:55;;;;;;;12.07;2.58;;;11.20;99.90;;;;;;4971729;28;20049;-85
2022/11/02 05:51:21;;;;;;;11.10;2.83;;;11.00;99.90;;;;;;4984620;28;20076;-85
2022/11/02 05:53:47;;;;;;;11.73;2.70;;;11.00;99.90;;;;;;4991518;28;20434;-84
2022/11/02 05:56:13;;;;;;;9.80;2.50;;;11.00;99.90;;;;;;4989338;28;20033;-84
2022/11/02 05:58:39;;;;;;;9.02;2.55;;;10.90;99.90;;;;;;4989058;28;20034;-86
2022/11/02 06:01:06;;;;;;;9.88;2.50;;;10.90;99.90;;;;;;5007229;28;20112;-86
2022/11/02 06:03:33;;;;;;;11.85;2.58;;;11.30;99.90;;;;;;4987723;28;20507;-85
2022/11/02 06:06:06;;;;;;;11.48;2.47;;;11.00;99.90;;;;;;4987436;28;20121;-85
2022/11/02 06:08:34;;;;;;;12.23;2.70;;;11.00;99.90;;;;;;4997095;28;20049;-86
2022/11/02 06:11:11;;;;;;;15.10;2.97;;;11.00;99.90;;;;;;4993459;28;20042;-86
2022/11/02 06:13:37;;;;;;;12.77;2.75;;;11.20;99.90;;;;;;5006519;28;20042;-85
2022/11/02 06:16:05;;;;;;;13.38;2.30;;;11.00;99.90;;;;;;4987012;28;20046;-86
2022/11/02 06:18:31;;;;;;;14.60;3.42;;;10.90;99.90;;;;;;4987407;28;20034;-86
2022/11/02 06:20:57;;;;;;;13.65;2.50;;;10.90;99.90;;;;;;4988763;28;20387;-86
2022/11/02 06:23:24;;;;;;;14.23;2.90;;;11.10;99.90;;;;;;5005478;28;20041;-87
2022/11/02 06:25:54;;;;;;;14.48;2.80;;;10.90;99.90;;;;;;4992026;28;20041;-86
2022/11/02 06:28:21;;;;;;;13.68;2.53;;;11.00;99.90;;;;;;4989809;28;20049;-86
2022/11/02 06:30:48;;;;;;;13.38;2.60;;;10.90;99.90;;;;;;4989419;28;20053;-85
2022/11/02 06:33:14;;;;;;;10.68;2.75;;;11.00;99.90;;;;;;4965227;28;20030;-85
2022/11/02 06:35:47;;;;;;;11.73;2.45;;;11.40;99.90;;;;;;4989979;28;20130;-86
2022/11/02 06:38:13;;;;;;;12.32;2.30;;;11.00;99.90;;;;;;4981972;28;20065;-86
2022/11/02 06:40:39;;;;;;;13.07;2.70;;;11.00;99.90;;;;;;5006495;28;20076;-87
2022/11/02 06:43:04;;;;;;;10.82;2.63;;;11.00;99.90;;;;;;4975446;28;20415;-85
2022/11/02 06:45:30;;;;;;;11.48;2.70;;;11.00;99.90;;;;;;4991124;28;20046;-86
2022/11/02 06:47:56;;;;;;;11.90;2.30;;;11.10;99.90;;;;;;4992973;28;20490;-86
2022/11/02 06:50:23;;;;;;;13.23;2.92;;;11.00;99.90;;;;;;4976677;28;20498;-86
2022/11/02 06:52:50;;;;;;;13.88;2.45;;;11.00;99.90;;;;;;4960183;28;20054;-85
2022/11/02 06:55:17;;;;;;;12.48;2.55;;;11.00;99.90;;;;;;4972022;28;20506;-85
2022/11/02 06:57:43;;;;;;;14.25;2.50;;;11.00;99.90;;;;;;4995090;28;20046;-86
2022/11/02 07:00:11;;;;;;;9.73;2.42;;;11.00;99.90;;;;;;5011160;28;20037;-86
2022/11/02 07:02:40;;;;;;;15.00;2.88;;;11.00;99.90;;;;;;4997752;28;20091;-86
2022/11/02 07:05:06;;;;;;;13.02;2.58;;;11.00;99.90;;;;;;5030656;28;20046;-85
2022/11/02 07:07:32;;;;;;;12.65;2.80;;;11.00;99.90;;;;;;4998020;28;20128;-85
2022/11/02 07:09:58;;;;;;;13.88;2.75;;;11.00;99.90;;;;;;5013956;28;20538;-87
2022/11/02 07:12:24;;;;;;;14.15;2.78;;;11.00;99.90;;;;;;4994749;28;20188;-86
2022/11/02 07:14:49;;;;;;;12.07;2.72;;;11.00;99.90;;;;;;4997882;28;20080;-85
2022/11/02 07:17:15;;;;;;;12.10;2.55;;;11.10;99.90;;;;;;4981544;28;20388;-85
2022/11/02 07:19:41;;;;;;;12.00;2.85;;;11.50;99.90;;;;;;4981382;28;20069;-84
2022/11/02 07:22:07;;;;;;;12.35;2.40;;;11.20;99.90;;;;;;4995563;28;20103;-86
2022/11/02 07:24:32;;;;;;;11.20;2.60;;;11.40;99.90;;;;;;5010251;28;20046;-85
2022/11/02 07:26:58;;;;;;;14.70;2.90;;;11.80;99.90;;;;;;4992513;28;20112;-83
2022/11/02 07:29:23;;;;;;;14.18;2.97;;;11.30;99.90;;;;;;4993940;28;20056;-83
2022/11/02 07:31:49;;;;;;;13.20;2.83;;;11.30;99.90;;;;;;4977899;28;20080;-85
2022/11/02 07:34:15;;;;;;;11.23;2.30;;;11.20;99.90;;;;;;4987068;28;20045;-85
2022/11/02 07:36:41;;;;;;;11.98;2.60;;;11.20;99.90;;;;;;4993967;28;20037;-85
2022/11/02 07:39:07;;;;;;;14.07;2.45;;;11.20;99.90;;;;;;4993657;28;20044;-85
2022/11/02 07:41:33;;;;;;;9.23;2.08;;;11.20;99.90;;;;;;4994159;28;20103;-85
2022/11/02 07:43:59;;;;;;;11.55;2.50;;;11.20;99.90;;;;;;4993046;28;20561;-84
2022/11/02 07:46:25;;;;;;;14.18;2.70;;;11.20;99.90;;;;;;4989420;28;20057;-85
2022/11/02 07:48:51;;;;;;;10.00;2.30;;;11.10;99.90;;;;;;4997237;28;20514;-85
2022/11/02 07:51:17;;;;;;;11.02;2.30;;;11.10;99.90;;;;;;5013392;28;20188;-85
2022/11/02 07:53:43;;;;;;;10.70;2.75;;;11.10;99.90;;;;;;5024986;28;20579;-84
2022/11/02 07:56:09;;;;;;;10.07;2.22;;;11.00;99.90;;;;;;4992846;28;20033;-85
2022/11/02 07:58:35;;;;;;;9.88;1.90;;;11.00;99.90;;;;;;4978382;28;20041;-85
2022/11/02 08:01:01;;;;;;;9.73;2.00;;;11.00;99.90;;;;;;5012902;28;20080;-85
2022/11/02 08:03:27;;;;;;;9.00;2.00;;;11.00;99.90;;;;;;5013341;28;20087;-85
2022/11/02 08:05:54;;;;;;;9.77;1.90;;;11.00;99.90;;;;;;4995524;28;20056;-85
2022/11/02 08:08:22;;;;;;;8.23;1.90;;;11.40;99.90;;;;;;4993299;28;20096;-86
2022/11/02 08:10:50;;;;;;;9.13;1.80;;;11.00;99.90;;;;;;5009351;28;20568;-85
2022/11/02 08:13:18;;;;;;;7.45;1.63;;;11.00;99.90;;;;;;5009668;28;20485;-85
2022/11/02 08:15:49;;;;;;;11.13;2.15;;;11.00;99.90;;;;;;5008567;28;20049;-84
2022/11/02 08:18:17;;;;;;;9.63;1.77;;;11.10;99.90;;;;;;4976677;28;20482;-85
2022/11/02 08:20:46;;;;;;;8.60;1.67;;;11.20;99.90;;;;;;4993013;28;20037;-84
2022/11/02 08:23:14;;;;;;;8.73;1.75;;;11.20;99.90;;;;;;4993678;28;20466;-84
2022/11/02 08:25:40;;;;;;;10.15;2.10;;;11.30;99.90;;;;;;4974416;28;20042;-85
2022/11/02 08:28:09;;;;;;;9.82;1.60;;;11.40;99.90;;;;;;4993055;28;20052;-85
2022/11/02 08:30:37;;;;;;;9.70;2.17;;;11.50;99.90;;;;;;4976769;28;20056;-85
2022/11/02 08:33:14;;;;;;;10.35;2.00;;;11.70;99.90;;;;;;5009268;28;20375;-85
2022/11/02 08:35:41;;;;;;;8.35;1.88;;;11.90;99.90;;;;;;5008323;28;20073;-85
2022/11/02 08:38:07;;;;;;;9.98;2.00;;;12.20;99.90;;;;;;4992406;28;20467;-84
2022/11/02 08:40:33;;;;;;;9.15;1.88;;;12.10;99.90;;;;;;4992796;28;20041;-85
2022/11/02 08:43:01;;;;;;;11.35;2.05;;;12.00;99.90;;;;;;4992826;28;20069;-85
2022/11/02 08:45:28;;;;;;;8.00;1.90;;;12.10;99.90;;;;;;4992431;28;20088;-85
2022/11/02 08:47:54;;;;;;;9.77;1.90;;;12.10;99.90;;;;;;4991652;28;20116;-85
2022/11/02 08:50:20;;;;;;;10.05;1.98;;;12.20;99.90;;;;;;4956917;28;20077;-85
2022/11/02 08:52:46;;;;;;;8.35;1.70;;;12.20;99.90;;;;;;4987033;28;20037;-85
2022/11/02 08:55:12;;;;;;;7.03;1.60;;;12.20;99.90;;;;;;4992107;28;20124;-85
2022/11/02 08:57:49;;;;;;;11.15;1.88;;;12.20;99.90;;;;;;4973998;28;20074;-85
2022/11/02 09:00:17;;;;;;;7.25;1.75;;;12.20;99.90;;;;;;5008133;28;20045;-85
2022/11/02 09:02:43;;;;;;;10.13;2.00;;;12.20;99.90;;;;;;4992368;28;20048;-85
2022/11/02 09:05:09;;;;;;;9.05;2.10;;;12.30;99.90;;;;;;5008206;28;20037;-85
2022/11/02 09:07:35;;;;;;;10.80;2.10;;;12.30;99.90;;;;;;4975314;28;20439;-85
2022/11/02 09:10:01;;;;;;;10.90;2.03;;;12.40;99.90;;;;;;4966973;28;20037;-84
2022/11/02 09:12:27;;;;;;;11.32;2.45;;;12.40;99.90;;;;;;5027416;28;20041;-85
2022/11/02 09:14:53;;;;;;;10.65;2.20;;;12.40;99.90;;;;;;5011400;28;20051;-85
2022/11/02 09:17:18;;;;;;;8.20;1.88;;;12.40;99.90;;;;;;4995773;28;20057;-85
2022/11/02 09:19:44;;;;;;;9.35;2.10;;;12.50;99.90;;;;;;4980326;28;20641;-87
2022/11/02 09:22:10;;;;;;;12.88;2.28;;;12.50;99.90;;;;;;4979647;28;20049;-86
2022/11/02 09:24:35;;;;;;;10.18;2.42;;;12.60;99.90;;;;;;5011582;28;20395;-86
2022/11/02 09:27:01;;;;;;;9.82;2.47;;;12.60;99.90;;;;;;4995478;28;20045;-85
2022/11/02 09:29:27;;;;;;;13.65;2.80;;;12.60;99.90;;;;;;5024468;28;20111;-84
2022/11/02 09:31:52;;;;;;;11.20;2.25;;;12.70;99.90;;;;;;4985121;28;20041;-86
2022/11/02 09:34:18;;;;;;;9.55;2.40;;;12.80;99.90;;;;;;4994321;28;20074;-86
2022/11/02 09:36:44;;;;;;;11.43;2.53;;;12.90;99.90;;;;;;4975747;28;20045;-86
2022/11/02 09:39:10;;;;;;;10.50;2.47;;;13.00;99.90;;;;;;4957978;28;20038;-86
2022/11/02 09:41:42;;;;;;;15.35;2.50;;;13.00;99.90;;;;;;4990172;28;20121;-86
2022/11/02 09:44:23;;;;;;;13.25;2.53;;;12.90;99.90;;;;;;4991473;28;20037;-86
2022/11/02 09:46:49;;;;;;;11.15;2.58;;;13.00;99.90;;;;;;4990897;28;20465;-85
2022/11/02 09:49:17;;;;;;;14.32;2.38;;;13.10;99.90;;;;;;5007884;28;20133;-86
2022/11/02 09:51:54;;;;;;;10.80;2.40;;;13.20;99.90;;;;;;5008077;28;20069;-85
2022/11/02 09:54:40;;;;;;;10.30;2.10;;;13.30;99.90;;;;;;4991667;28;20077;-86
2022/11/02 09:57:18;;;;;;;15.85;2.80;;;13.40;99.90;;;;;;4990519;28;20511;-86
2022/11/02 09:59:43;;;;;;;13.38;2.55;;;13.40;99.90;;;;;;4978978;28;20120;-85
2022/11/02 10:02:58;;;;;;;13.20;2.65;;;13.40;99.90;;;;;;4972439;28;20124;-85
2022/11/02 10:05:46;;;;;;;10.73;2.15;;;13.40;99.90;;;;;;5021278;28;20052;-86
2022/11/02 10:08:47;;;;;;;13.15;2.20;;;13.40;99.90;;;;;;5007020;28;20046;-86
2022/11/02 10:11:35;;;;;;;14.95;2.60;;;13.30;99.90;;;;;;4982629;28;20053;-85
2022/11/02 10:14:09;;;;;;;9.77;2.10;;;13.10;99.90;;;;;;5011195;28;20479;-86
2022/11/02 10:16:49;;;;;;;14.20;2.70;;;13.10;99.90;;;;;;5011057;28;20065;-86
2022/11/02 10:19:19;;;;;;;11.60;2.50;;;13.00;99.90;;;;;;4998630;28;20046;-86
2022/11/02 10:21:47;;;;;;;13.07;2.45;;;12.90;99.90;;;;;;5008102;28;20066;-87
2022/11/02 10:24:22;;;;;;;14.02;2.35;;;12.70;99.90;;;;;;4995212;28;20177;-87
2022/11/02 10:26:48;;;;;;;13.25;2.40;;;12.70;99.90;;;;;;4995181;28;20045;-86
2022/11/02 10:29:25;;;;;;;10.38;2.50;;;12.60;99.90;;;;;;5009598;28;20392;-86
2022/11/02 10:31:51;;;;;;;14.38;2.70;;;12.50;99.90;;;;;;4995002;28;20046;-86
2022/11/02 10:34:23;;;;;;;12.07;2.40;;;12.40;99.90;;;;;;4981626;28;20095;-86
2022/11/02 10:36:54;;;;;;;12.75;2.75;;;12.40;99.90;;;;;;5030983;28;20037;-86
2022/11/02 10:39:56;;;;;;;10.18;2.28;;;12.40;99.90;;;;;;4980728;28;20057;-87
2022/11/02 10:42:39;;;;;;;13.25;2.13;;;12.60;99.90;;;;;;4994049;28;20046;-86
2022/11/02 10:45:42;;;;;;;11.50;2.50;;;12.80;99.90;;;;;;4994826;28;20054;-86
2022/11/02 10:48:30;;;;;;;12.63;2.58;;;13.10;99.90;;;;;;5011137;28;20297;-86
2022/11/02 10:51:13;;;;;;;11.65;2.17;;;13.50;99.90;;;;;;5009868;28;20060;-87
2022/11/02 10:53:44;;;;;;;12.75;1.98;;;13.60;99.90;;;;;;4978729;28;20037;-87
2022/11/02 10:56:30;;;;;;;9.98;2.05;;;13.60;99.90;;;;;;4994339;28;20042;-87
2022/11/02 10:59:09;;;;;;;12.48;2.20;;;13.60;99.90;;;;;;4975081;28;20042;-87
2022/11/02 11:01:35;;;;;;;10.63;2.08;;;13.60;99.90;;;;;;5002297;28;20550;-87
2022/11/02 11:04:18;;;;;;;9.90;1.92;;;13.70;99.90;;;;;;4990463;28;20046;-87
2022/11/02 11:06:44;;;;;;;;;;;13.80;99.90;;;;;;4993042;28;20048;-86
2022/11/02 11:09:19;;;;;;;11.68;2.10;;;14.00;99.90;;;;;;5017809;28;19917;-87
2022/11/02 11:12:00;;;;;;;13.27;2.20;;;14.00;99.90;;;;;;5030343;28;20041;-87
2022/11/02 11:14:28;;;;;;;11.70;2.35;;;14.00;99.90;;;;;;5009658;28;20067;-86
2022/11/02 11:17:01;;;;;;;12.85;2.20;;;14.00;99.90;;;;;;4990377;28;20037;-86
2022/11/02 11:19:38;;;;;;;10.82;2.28;;;14.10;99.90;;;;;;4994655;28;20399;-85
2022/11/02 11:22:31;;;;;;;9.73;2.08;;;14.20;99.90;;;;;;5010775;28;20165;-86
2022/11/02 11:25:12;;;;;;;13.18;2.72;;;14.10;99.90;;;;;;4992378;28;20044;-87
2022/11/02 11:27:46;;;;;;;13.77;2.17;;;14.00;99.90;;;;;;4993329;28;20050;-86
2022/11/02 11:30:33;;;;;;;11.73;2.20;;;14.00;99.90;;;;;;4994015;28;20074;-87
2022/11/02 11:33:00;;;;;;;11.68;2.55;;;13.90;99.90;;;;;;5010165;28;20449;-87
2022/11/02 11:35:38;;;;;;;13.15;2.28;;;13.90;99.90;;;;;;4991425;28;20136;-87
2022/11/02 11:38:13;;;;;;;12.77;2.05;;;13.90;99.90;;;;;;4994330;28;20387;-87
2022/11/02 11:40:43;;;;;;;9.50;2.28;;;13.90;99.90;;;;;;4993665;28;20034;-87
2022/11/02 11:43:16;;;;;;;12.10;2.35;;;14.00;99.90;;;;;;5010776;28;20449;-87
2022/11/02 11:46:04;;;;;;;7.55;2.03;;;14.00;99.90;;;;;;5008877;28;20125;-87
2022/11/02 11:48:35;;;;;;;12.93;2.30;;;14.00;99.90;;;;;;5009002;28;20132;-86
2022/11/02 11:51:03;;;;;;;12.65;2.65;;;14.00;99.90;;;;;;4993744;28;20049;-87
2022/11/02 11:53:29;;;;;;;8.45;1.80;;;14.00;99.90;;;;;;4994025;28;20053;-87
2022/11/02 11:55:57;;;;;;;9.90;2.08;;;14.00;99.90;;;;;;4974039;28;20118;-87
2022/11/02 11:58:27;;;;;;;9.27;2.10;;;14.00;99.90;;;;;;5005470;28;20037;-86
2022/11/02 12:01:16;;;;;;;9.75;2.10;;;14.10;99.90;;;;;;4993298;28;20049;-87
2022/11/02 12:04:00;;;;;;;8.68;2.08;;;14.10;99.90;;;;;;4993714;28;20442;-87
2022/11/02 12:06:56;;;;;;;10.00;2.15;;;14.10;99.90;;;;;;4976877;28;20038;-87
2022/11/02 12:09:45;;;;;;;13.25;2.28;;;14.20;99.90;;;;;;4994656;28;20505;-88
2022/11/02 12:12:21;;;;;;;11.73;2.03;;;14.20;99.90;;;;;;5009406;28;20125;-87
2022/11/02 12:15:03;;;;;;;10.88;1.90;;;14.20;99.90;;;;;;4993093;28;20038;-87
2022/11/02 12:17:53;;;;;;;7.72;1.70;;;14.20;99.90;;;;;;4993178;28;20078;-88
2022/11/02 12:20:34;;;;;;;9.75;2.13;;;14.10;99.90;;;;;;5008004;28;20407;-86
2022/11/02 12:23:25;;;;;;;11.60;2.30;;;14.20;99.90;;;;;;4993563;28;20447;-87
2022/11/02 12:26:05;;;;;;;10.75;1.90;;;14.20;99.90;;;;;;4986471;28;20496;-86
2022/11/02 12:28:36;;;;;;;10.55;2.17;;;14.20;99.90;;;;;;5012684;28;20052;-88
2022/11/02 12:31:25;;;;;;;10.75;1.88;;;14.20;99.90;;;;;;4994000;28;20045;-87
2022/11/02 12:34:05;;;;;;;9.35;2.08;;;14.20;99.90;;;;;;5009394;28;20407;-87
2022/11/02 12:36:46;;;;;;;9.07;1.80;;;14.10;99.90;;;;;;5008994;28;20077;-87
2022/11/02 12:39:33;;;;;;;10.25;1.65;;;14.10;99.90;;;;;;4992710;28;20034;-87
2022/11/02 12:42:10;;;;;;;10.38;1.90;;;14.10;99.90;;;;;;4992517;28;20041;-86
2022/11/02 12:44:49;;;;;;;11.55;2.58;;;14.10;99.90;;;;;;4992464;28;20067;-87
2022/11/02 12:47:40;;;;;;;10.90;1.90;;;14.20;99.90;;;;;;4992174;28;20550;-87
2022/11/02 12:50:48;;;;;;;15.55;2.63;;;14.20;99.90;;;;;;4988603;28;20392;-87
2022/11/02 12:53:25;;;;;;;10.02;2.55;;;14.20;99.90;;;;;;4960112;28;20108;-86
2022/11/02 12:55:55;;;;;;;12.65;2.10;;;14.20;99.90;;;;;;5008262;28;20072;-87
2022/11/02 12:58:26;;;;;;;10.07;1.88;;;14.20;99.90;;;;;;5016946;28;20041;-87
2022/11/02 13:01:00;;;;;;;12.85;2.45;;;14.20;99.90;;;;;;5007486;28;20045;-86
2022/11/02 13:03:35;;;;;;;10.73;2.00;;;14.20;99.90;;;;;;4991683;28;20084;-87
2022/11/02 13:06:07;;;;;;;7.28;1.77;;;14.20;99.90;;;;;;5008615;28;20054;-87
2022/11/02 13:08:36;;;;;;;13.95;2.28;;;14.30;99.90;;;;;;5008653;28;20503;-87
2022/11/02 13:11:09;;;;;;;9.23;2.20;;;14.30;99.90;;;;;;4992322;28;20045;-87
2022/11/02 13:13:43;;;;;;;10.20;2.00;;;14.30;99.90;;;;;;5008154;28;20510;-87